sensor_id;sensor_type;location;lat;lon;timestamp;P1;durP1;ratioP1;P2;durP2;ratioP2
50851;SDS011;43953;45.508;-122.806;2022-09-13T00:00:01;19.73;;;16.80;;
50851;SDS011;43953;45.508;-122.806;2022-09-13T00:00:34;20.70;;;18.00;;
50851;SDS011;43953;45.508;-122.806;2022-09-13T00:01:06;20.27;;;17.38;;
50851;SDS011;43953;45.508;-122.806;2022-09-13T00:01:38;24.38;;;18.42;;
50851;SDS011;43953;45.508;-122.806;2022-09-13T00:02:10;23.35;;;19.05;;
50851;SDS011;43953;45.508;-122.806;2022-09-13T00:02:42;20.70;;;17.52;;
50851;SDS011;43953;45.508;-122.806;2022-09-13T00:03:13;20.98;;;17.10;;
50851;SDS011;43953;45.508;-122.806;2022-09-13T00:03:45;22.10;;;18.10;;
50851;SDS011;43953;45.508;-122.806;2022-09-13T00:04:17;19.75;;;17.38;;
50851;SDS011;43953;45.508;-122.806;2022-09-13T00:04:48;20.33;;;16.63;;
50851;SDS011;43953;45.508;-122.806;2022-09-13T00:05:20;21.42;;;17.63;;
50851;SDS011;43953;45.508;-122.806;2022-09-13T00:05:52;20.00;;;17.60;;
50851;SDS011;43953;45.508;-122.806;2022-09-13T00:06:24;20.40;;;17.40;;
50851;SDS011;43953;45.508;-122.806;2022-09-13T00:06:56;20.90;;;17.23;;
50851;SDS011;43953;45.508;-122.806;2022-09-13T00:07:27;20.83;;;18.48;;
50851;SDS011;43953;45.508;-122.806;2022-09-13T00:07:59;22.50;;;17.38;;
50851;SDS011;43953;45.508;-122.806;2022-09-13T00:08:31;23.83;;;17.67;;
50851;SDS011;43953;45.508;-122.806;2022-09-13T00:09:03;22.67;;;17.90;;
50851;SDS011;43953;45.508;-122.806;2022-09-13T00:09:34;24.20;;;17.55;;
50851;SDS011;43953;45.508;-122.806;2022-09-13T00:10:07;22.08;;;16.98;;
50851;SDS011;43953;45.508;-122.806;2022-09-13T00:10:42;21.88;;;17.80;;
50851;SDS011;43953;45.508;-122.806;2022-09-13T00:11:22;20.58;;;16.88;;
50851;SDS011;43953;45.508;-122.806;2022-09-13T00:11:55;19.08;;;16.50;;
50851;SDS011;43953;45.508;-122.806;2022-09-13T00:12:27;22.77;;;17.23;;
50851;SDS011;43953;45.508;-122.806;2022-09-13T00:12:58;21.67;;;18.65;;
50851;SDS011;43953;45.508;-122.806;2022-09-13T00:13:31;20.23;;;18.02;;
50851;SDS011;43953;45.508;-122.806;2022-09-13T00:14:03;22.80;;;18.52;;
50851;SDS011;43953;45.508;-122.806;2022-09-13T00:14:35;20.98;;;17.98;;
50851;SDS011;43953;45.508;-122.806;2022-09-13T00:15:06;21.02;;;17.05;;
50851;SDS011;43953;45.508;-122.806;2022-09-13T00:15:45;22.02;;;17.65;;
50851;SDS011;43953;45.508;-122.806;2022-09-13T00:16:51;19.83;;;17.23;;
50851;SDS011;43953;45.508;-122.806;2022-09-13T00:17:25;20.70;;;17.02;;
50851;SDS011;43953;45.508;-122.806;2022-09-13T00:17:57;20.20;;;17.75;;
50851;SDS011;43953;45.508;-122.806;2022-09-13T00:18:29;19.52;;;17.17;;
50851;SDS011;43953;45.508;-122.806;2022-09-13T00:19:01;21.95;;;18.77;;
50851;SDS011;43953;45.508;-122.806;2022-09-13T00:19:33;22.23;;;17.63;;
50851;SDS011;43953;45.508;-122.806;2022-09-13T00:20:05;19.35;;;17.30;;
50851;SDS011;43953;45.508;-122.806;2022-09-13T00:20:37;19.88;;;17.83;;
50851;SDS011;43953;45.508;-122.806;2022-09-13T00:21:13;21.70;;;17.48;;
50851;SDS011;43953;45.508;-122.806;2022-09-13T00:21:46;22.77;;;18.58;;
50851;SDS011;43953;45.508;-122.806;2022-09-13T00:22:18;22.00;;;18.20;;
50851;SDS011;43953;45.508;-122.806;2022-09-13T00:22:50;18.90;;;16.90;;
50851;SDS011;43953;45.508;-122.806;2022-09-13T00:23:21;19.13;;;16.98;;
50851;SDS011;43953;45.508;-122.806;2022-09-13T00:23:53;19.88;;;17.02;;
50851;SDS011;43953;45.508;-122.806;2022-09-13T00:24:25;20.05;;;17.50;;
50851;SDS011;43953;45.508;-122.806;2022-09-13T00:24:57;20.65;;;17.17;;
50851;SDS011;43953;45.508;-122.806;2022-09-13T00:25:29;21.55;;;17.48;;
50851;SDS011;43953;45.508;-122.806;2022-09-13T00:26:05;20.85;;;16.70;;
50851;SDS011;43953;45.508;-122.806;2022-09-13T00:26:38;22.15;;;18.15;;
50851;SDS011;43953;45.508;-122.806;2022-09-13T00:27:10;20.52;;;16.73;;
50851;SDS011;43953;45.508;-122.806;2022-09-13T00:27:42;20.23;;;16.75;;
50851;SDS011;43953;45.508;-122.806;2022-09-13T00:28:15;22.13;;;17.52;;
50851;SDS011;43953;45.508;-122.806;2022-09-13T00:28:50;23.85;;;17.70;;
50851;SDS011;43953;45.508;-122.806;2022-09-13T00:29:25;22.83;;;17.52;;
50851;SDS011;43953;45.508;-122.806;2022-09-13T00:29:57;21.88;;;18.02;;
50851;SDS011;43953;45.508;-122.806;2022-09-13T00:30:29;21.58;;;18.05;;
50851;SDS011;43953;45.508;-122.806;2022-09-13T00:31:02;22.42;;;17.50;;
50851;SDS011;43953;45.508;-122.806;2022-09-13T00:31:35;21.40;;;18.17;;
50851;SDS011;43953;45.508;-122.806;2022-09-13T00:32:07;18.98;;;16.83;;
50851;SDS011;43953;45.508;-122.806;2022-09-13T00:32:39;21.23;;;17.65;;
50851;SDS011;43953;45.508;-122.806;2022-09-13T00:33:11;20.42;;;17.60;;
50851;SDS011;43953;45.508;-122.806;2022-09-13T00:33:42;20.27;;;17.92;;
50851;SDS011;43953;45.508;-122.806;2022-09-13T00:34:14;25.60;;;17.80;;
50851;SDS011;43953;45.508;-122.806;2022-09-13T00:34:46;22.58;;;17.38;;
50851;SDS011;43953;45.508;-122.806;2022-09-13T00:35:17;21.02;;;17.23;;
50851;SDS011;43953;45.508;-122.806;2022-09-13T00:35:50;20.65;;;17.30;;
50851;SDS011;43953;45.508;-122.806;2022-09-13T00:36:21;20.30;;;17.83;;
50851;SDS011;43953;45.508;-122.806;2022-09-13T00:36:53;21.52;;;18.30;;
50851;SDS011;43953;45.508;-122.806;2022-09-13T00:37:25;20.58;;;16.95;;
50851;SDS011;43953;45.508;-122.806;2022-09-13T00:37:59;19.58;;;16.77;;
50851;SDS011;43953;45.508;-122.806;2022-09-13T00:38:33;20.52;;;16.63;;
50851;SDS011;43953;45.508;-122.806;2022-09-13T00:39:06;19.63;;;17.13;;
50851;SDS011;43953;45.508;-122.806;2022-09-13T00:39:39;22.50;;;17.92;;
50851;SDS011;43953;45.508;-122.806;2022-09-13T00:40:11;19.23;;;17.23;;
50851;SDS011;43953;45.508;-122.806;2022-09-13T00:40:43;19.02;;;16.80;;
50851;SDS011;43953;45.508;-122.806;2022-09-13T00:41:16;19.25;;;16.52;;
50851;SDS011;43953;45.508;-122.806;2022-09-13T00:41:49;20.90;;;17.20;;
50851;SDS011;43953;45.508;-122.806;2022-09-13T00:42:25;20.92;;;17.95;;
50851;SDS011;43953;45.508;-122.806;2022-09-13T00:42:57;20.08;;;17.05;;
50851;SDS011;43953;45.508;-122.806;2022-09-13T00:43:40;21.92;;;17.02;;
50851;SDS011;43953;45.508;-122.806;2022-09-13T00:45:33;19.67;;;16.40;;
50851;SDS011;43953;45.508;-122.806;2022-09-13T00:46:05;22.70;;;17.10;;
50851;SDS011;43953;45.508;-122.806;2022-09-13T00:46:44;19.98;;;17.42;;
50851;SDS011;43953;45.508;-122.806;2022-09-13T00:47:22;18.65;;;16.65;;
50851;SDS011;43953;45.508;-122.806;2022-09-13T00:48:04;21.02;;;17.10;;
50851;SDS011;43953;45.508;-122.806;2022-09-13T00:48:38;20.02;;;17.20;;
50851;SDS011;43953;45.508;-122.806;2022-09-13T00:49:50;19.40;;;16.67;;
50851;SDS011;43953;45.508;-122.806;2022-09-13T00:50:33;21.17;;;17.25;;
50851;SDS011;43953;45.508;-122.806;2022-09-13T00:51:09;22.27;;;17.40;;
50851;SDS011;43953;45.508;-122.806;2022-09-13T00:51:42;23.02;;;17.55;;
50851;SDS011;43953;45.508;-122.806;2022-09-13T00:52:19;20.65;;;17.40;;
50851;SDS011;43953;45.508;-122.806;2022-09-13T00:53:04;18.60;;;16.15;;
50851;SDS011;43953;45.508;-122.806;2022-09-13T00:53:38;20.40;;;16.30;;
50851;SDS011;43953;45.508;-122.806;2022-09-13T00:54:13;19.08;;;16.88;;
50851;SDS011;43953;45.508;-122.806;2022-09-13T00:54:50;22.15;;;17.25;;
50851;SDS011;43953;45.508;-122.806;2022-09-13T00:55:30;20.05;;;17.20;;
50851;SDS011;43953;45.508;-122.806;2022-09-13T00:56:44;20.13;;;17.55;;
50851;SDS011;43953;45.508;-122.806;2022-09-13T00:57:20;24.75;;;18.02;;
50851;SDS011;43953;45.508;-122.806;2022-09-13T00:57:54;20.20;;;17.77;;
50851;SDS011;43953;45.508;-122.806;2022-09-13T00:58:34;21.20;;;17.63;;
50851;SDS011;43953;45.508;-122.806;2022-09-13T00:59:11;20.23;;;17.05;;
50851;SDS011;43953;45.508;-122.806;2022-09-13T00:59:46;18.73;;;16.73;;
50851;SDS011;43953;45.508;-122.806;2022-09-13T01:00:26;20.63;;;17.55;;
50851;SDS011;43953;45.508;-122.806;2022-09-13T01:00:58;22.80;;;17.80;;
50851;SDS011;43953;45.508;-122.806;2022-09-13T01:01:35;20.27;;;17.50;;
50851;SDS011;43953;45.508;-122.806;2022-09-13T01:02:12;20.58;;;17.25;;
50851;SDS011;43953;45.508;-122.806;2022-09-13T01:03:20;19.90;;;16.75;;
50851;SDS011;43953;45.508;-122.806;2022-09-13T01:03:54;20.98;;;17.35;;
50851;SDS011;43953;45.508;-122.806;2022-09-13T01:04:26;19.88;;;16.70;;
50851;SDS011;43953;45.508;-122.806;2022-09-13T01:05:00;23.58;;;18.10;;
50851;SDS011;43953;45.508;-122.806;2022-09-13T01:05:35;19.60;;;17.33;;
50851;SDS011;43953;45.508;-122.806;2022-09-13T01:06:10;21.60;;;18.15;;
50851;SDS011;43953;45.508;-122.806;2022-09-13T01:06:46;21.52;;;18.05;;
50851;SDS011;43953;45.508;-122.806;2022-09-13T01:07:21;20.13;;;17.55;;
50851;SDS011;43953;45.508;-122.806;2022-09-13T01:07:54;18.83;;;16.77;;
50851;SDS011;43953;45.508;-122.806;2022-09-13T01:08:27;19.40;;;17.40;;
50851;SDS011;43953;45.508;-122.806;2022-09-13T01:09:01;19.17;;;16.20;;
50851;SDS011;43953;45.508;-122.806;2022-09-13T01:09:35;20.33;;;17.60;;
50851;SDS011;43953;45.508;-122.806;2022-09-13T01:10:11;20.85;;;18.08;;
50851;SDS011;43953;45.508;-122.806;2022-09-13T01:10:43;23.67;;;17.98;;
50851;SDS011;43953;45.508;-122.806;2022-09-13T01:11:19;19.83;;;17.73;;
50851;SDS011;43953;45.508;-122.806;2022-09-13T01:12:00;21.42;;;17.77;;
50851;SDS011;43953;45.508;-122.806;2022-09-13T01:13:07;19.48;;;17.38;;
50851;SDS011;43953;45.508;-122.806;2022-09-13T01:13:46;21.17;;;17.70;;
50851;SDS011;43953;45.508;-122.806;2022-09-13T01:14:18;20.02;;;17.45;;
50851;SDS011;43953;45.508;-122.806;2022-09-13T01:14:52;21.05;;;18.10;;
50851;SDS011;43953;45.508;-122.806;2022-09-13T01:15:27;22.23;;;17.88;;
50851;SDS011;43953;45.508;-122.806;2022-09-13T01:15:59;19.58;;;17.58;;
50851;SDS011;43953;45.508;-122.806;2022-09-13T01:16:31;20.65;;;17.50;;
50851;SDS011;43953;45.508;-122.806;2022-09-13T01:17:03;22.05;;;17.70;;
50851;SDS011;43953;45.508;-122.806;2022-09-13T01:17:34;22.02;;;18.13;;
50851;SDS011;43953;45.508;-122.806;2022-09-13T01:18:09;21.52;;;17.38;;
50851;SDS011;43953;45.508;-122.806;2022-09-13T01:18:41;20.38;;;18.20;;
50851;SDS011;43953;45.508;-122.806;2022-09-13T01:19:13;21.77;;;17.63;;
50851;SDS011;43953;45.508;-122.806;2022-09-13T01:19:45;19.42;;;17.33;;
50851;SDS011;43953;45.508;-122.806;2022-09-13T01:20:17;21.60;;;17.50;;
50851;SDS011;43953;45.508;-122.806;2022-09-13T01:28:23;22.33;;;17.98;;
50851;SDS011;43953;45.508;-122.806;2022-09-13T01:30:42;20.48;;;17.80;;
50851;SDS011;43953;45.508;-122.806;2022-09-13T01:32:23;21.45;;;18.13;;
50851;SDS011;43953;45.508;-122.806;2022-09-13T01:34:08;21.98;;;18.60;;
50851;SDS011;43953;45.508;-122.806;2022-09-13T01:37:28;20.95;;;18.25;;
50851;SDS011;43953;45.508;-122.806;2022-09-13T01:39:02;20.30;;;17.73;;
50851;SDS011;43953;45.508;-122.806;2022-09-13T01:40:30;23.38;;;18.95;;
50851;SDS011;43953;45.508;-122.806;2022-09-13T01:42:10;21.50;;;18.98;;
50851;SDS011;43953;45.508;-122.806;2022-09-13T01:44:46;19.65;;;17.15;;
50851;SDS011;43953;45.508;-122.806;2022-09-13T01:47:48;19.75;;;17.67;;
50851;SDS011;43953;45.508;-122.806;2022-09-13T01:48:48;21.08;;;18.00;;
50851;SDS011;43953;45.508;-122.806;2022-09-13T01:51:15;22.55;;;18.33;;
50851;SDS011;43953;45.508;-122.806;2022-09-13T01:52:17;20.42;;;17.42;;
50851;SDS011;43953;45.508;-122.806;2022-09-13T01:52:59;20.65;;;17.88;;
50851;SDS011;43953;45.508;-122.806;2022-09-13T01:54:21;22.60;;;18.30;;
50851;SDS011;43953;45.508;-122.806;2022-09-13T01:55:10;20.50;;;17.55;;
50851;SDS011;43953;45.508;-122.806;2022-09-13T01:59:23;23.42;;;18.00;;
50851;SDS011;43953;45.508;-122.806;2022-09-13T02:00:12;20.60;;;18.23;;
50851;SDS011;43953;45.508;-122.806;2022-09-13T02:01:58;20.58;;;18.10;;
50851;SDS011;43953;45.508;-122.806;2022-09-13T02:02:36;23.73;;;18.60;;
50851;SDS011;43953;45.508;-122.806;2022-09-13T02:03:25;21.45;;;18.10;;
50851;SDS011;43953;45.508;-122.806;2022-09-13T02:04:03;21.50;;;18.30;;
50851;SDS011;43953;45.508;-122.806;2022-09-13T02:04:41;20.73;;;17.90;;
50851;SDS011;43953;45.508;-122.806;2022-09-13T02:06:14;20.30;;;17.60;;
50851;SDS011;43953;45.508;-122.806;2022-09-13T02:06:53;21.50;;;18.25;;
50851;SDS011;43953;45.508;-122.806;2022-09-13T02:07:40;21.45;;;18.23;;
50851;SDS011;43953;45.508;-122.806;2022-09-13T02:08:18;21.70;;;18.48;;
50851;SDS011;43953;45.508;-122.806;2022-09-13T02:09:07;22.25;;;18.25;;
50851;SDS011;43953;45.508;-122.806;2022-09-13T02:09:50;22.63;;;18.60;;
50851;SDS011;43953;45.508;-122.806;2022-09-13T02:10:28;22.05;;;18.08;;
50851;SDS011;43953;45.508;-122.806;2022-09-13T02:11:14;20.75;;;18.17;;
50851;SDS011;43953;45.508;-122.806;2022-09-13T02:12:26;20.55;;;18.35;;
50851;SDS011;43953;45.508;-122.806;2022-09-13T02:12:52;20.65;;;17.60;;
50851;SDS011;43953;45.508;-122.806;2022-09-13T02:13:27;22.70;;;18.42;;
50851;SDS011;43953;45.508;-122.806;2022-09-13T02:14:45;20.42;;;18.33;;
50851;SDS011;43953;45.508;-122.806;2022-09-13T02:15:43;21.25;;;18.65;;
50851;SDS011;43953;45.508;-122.806;2022-09-13T02:16:37;19.85;;;17.75;;
50851;SDS011;43953;45.508;-122.806;2022-09-13T02:17:31;20.95;;;17.50;;
50851;SDS011;43953;45.508;-122.806;2022-09-13T02:18:11;23.40;;;18.13;;
50851;SDS011;43953;45.508;-122.806;2022-09-13T02:19:06;20.90;;;17.70;;
50851;SDS011;43953;45.508;-122.806;2022-09-13T02:19:48;20.15;;;17.63;;
50851;SDS011;43953;45.508;-122.806;2022-09-13T02:20:24;20.08;;;17.83;;
50851;SDS011;43953;45.508;-122.806;2022-09-13T02:21:04;21.17;;;17.73;;
50851;SDS011;43953;45.508;-122.806;2022-09-13T02:21:57;21.75;;;18.45;;
50851;SDS011;43953;45.508;-122.806;2022-09-13T02:22:31;21.13;;;18.73;;
50851;SDS011;43953;45.508;-122.806;2022-09-13T02:23:12;20.23;;;18.08;;
50851;SDS011;43953;45.508;-122.806;2022-09-13T02:23:48;21.25;;;18.88;;
50851;SDS011;43953;45.508;-122.806;2022-09-13T02:24:25;23.80;;;18.83;;
50851;SDS011;43953;45.508;-122.806;2022-09-13T02:25:15;20.30;;;18.17;;
50851;SDS011;43953;45.508;-122.806;2022-09-13T02:25:52;20.45;;;18.25;;
50851;SDS011;43953;45.508;-122.806;2022-09-13T02:26:27;20.90;;;18.15;;
50851;SDS011;43953;45.508;-122.806;2022-09-13T02:27:05;22.33;;;18.40;;
50851;SDS011;43953;45.508;-122.806;2022-09-13T02:27:49;22.42;;;18.30;;
50851;SDS011;43953;45.508;-122.806;2022-09-13T02:28:33;21.20;;;17.98;;
50851;SDS011;43953;45.508;-122.806;2022-09-13T02:29:10;21.42;;;17.90;;
50851;SDS011;43953;45.508;-122.806;2022-09-13T02:29:47;20.58;;;18.38;;
50851;SDS011;43953;45.508;-122.806;2022-09-13T02:30:22;24.75;;;19.02;;
50851;SDS011;43953;45.508;-122.806;2022-09-13T02:30:54;24.60;;;19.08;;
50851;SDS011;43953;45.508;-122.806;2022-09-13T02:31:30;23.52;;;18.92;;
50851;SDS011;43953;45.508;-122.806;2022-09-13T02:32:54;24.30;;;19.25;;
50851;SDS011;43953;45.508;-122.806;2022-09-13T02:33:32;24.05;;;19.60;;
50851;SDS011;43953;45.508;-122.806;2022-09-13T02:34:25;22.02;;;19.45;;
50851;SDS011;43953;45.508;-122.806;2022-09-13T02:35:42;24.38;;;20.05;;
50851;SDS011;43953;45.508;-122.806;2022-09-13T02:36:16;23.70;;;19.27;;
50851;SDS011;43953;45.508;-122.806;2022-09-13T02:36:53;21.75;;;19.48;;
50851;SDS011;43953;45.508;-122.806;2022-09-13T02:37:27;22.73;;;19.27;;
50851;SDS011;43953;45.508;-122.806;2022-09-13T02:38:12;24.67;;;19.67;;
50851;SDS011;43953;45.508;-122.806;2022-09-13T02:39:00;23.85;;;20.48;;
50851;SDS011;43953;45.508;-122.806;2022-09-13T02:39:37;24.20;;;19.30;;
50851;SDS011;43953;45.508;-122.806;2022-09-13T02:40:18;23.95;;;19.42;;
50851;SDS011;43953;45.508;-122.806;2022-09-13T02:41:05;24.20;;;20.05;;
50851;SDS011;43953;45.508;-122.806;2022-09-13T02:42:25;22.05;;;19.45;;
50851;SDS011;43953;45.508;-122.806;2022-09-13T02:43:28;25.23;;;19.60;;
50851;SDS011;43953;45.508;-122.806;2022-09-13T02:44:10;23.15;;;19.40;;
50851;SDS011;43953;45.508;-122.806;2022-09-13T02:44:52;23.02;;;20.05;;
50851;SDS011;43953;45.508;-122.806;2022-09-13T02:45:28;23.25;;;18.95;;
50851;SDS011;43953;45.508;-122.806;2022-09-13T02:48:35;22.40;;;19.33;;
50851;SDS011;43953;45.508;-122.806;2022-09-13T02:51:16;20.95;;;18.70;;
50851;SDS011;43953;45.508;-122.806;2022-09-13T02:52:07;23.33;;;18.20;;
50851;SDS011;43953;45.508;-122.806;2022-09-13T02:53:43;22.90;;;18.75;;
50851;SDS011;43953;45.508;-122.806;2022-09-13T02:54:34;24.60;;;18.55;;
50851;SDS011;43953;45.508;-122.806;2022-09-13T02:56:22;23.55;;;18.35;;
50851;SDS011;43953;45.508;-122.806;2022-09-13T02:57:38;21.13;;;18.13;;
50851;SDS011;43953;45.508;-122.806;2022-09-13T02:58:38;20.48;;;17.52;;
50851;SDS011;43953;45.508;-122.806;2022-09-13T02:59:21;20.73;;;17.63;;
50851;SDS011;43953;45.508;-122.806;2022-09-13T02:59:54;20.73;;;16.80;;
50851;SDS011;43953;45.508;-122.806;2022-09-13T03:00:25;20.35;;;17.35;;
50851;SDS011;43953;45.508;-122.806;2022-09-13T03:00:58;20.55;;;16.08;;
50851;SDS011;43953;45.508;-122.806;2022-09-13T03:01:31;19.02;;;16.67;;
50851;SDS011;43953;45.508;-122.806;2022-09-13T03:02:06;19.70;;;17.40;;
50851;SDS011;43953;45.508;-122.806;2022-09-13T03:02:42;20.00;;;16.50;;
50851;SDS011;43953;45.508;-122.806;2022-09-13T03:03:16;21.45;;;17.77;;
50851;SDS011;43953;45.508;-122.806;2022-09-13T03:03:50;19.90;;;17.00;;
50851;SDS011;43953;45.508;-122.806;2022-09-13T03:04:24;20.25;;;16.88;;
50851;SDS011;43953;45.508;-122.806;2022-09-13T03:04:57;18.23;;;15.18;;
50851;SDS011;43953;45.508;-122.806;2022-09-13T03:05:30;19.08;;;16.02;;
50851;SDS011;43953;45.508;-122.806;2022-09-13T03:06:03;20.08;;;16.98;;
50851;SDS011;43953;45.508;-122.806;2022-09-13T03:06:36;21.70;;;16.13;;
50851;SDS011;43953;45.508;-122.806;2022-09-13T03:07:13;20.80;;;17.05;;
50851;SDS011;43953;45.508;-122.806;2022-09-13T03:07:45;19.25;;;16.08;;
50851;SDS011;43953;45.508;-122.806;2022-09-13T03:08:17;17.63;;;15.70;;
50851;SDS011;43953;45.508;-122.806;2022-09-13T03:08:51;18.27;;;15.95;;
50851;SDS011;43953;45.508;-122.806;2022-09-13T03:09:25;18.52;;;16.05;;
50851;SDS011;43953;45.508;-122.806;2022-09-13T03:10:02;18.27;;;15.15;;
50851;SDS011;43953;45.508;-122.806;2022-09-13T03:10:43;19.00;;;15.45;;
50851;SDS011;43953;45.508;-122.806;2022-09-13T03:18:20;22.48;;;16.13;;
50851;SDS011;43953;45.508;-122.806;2022-09-13T03:22:19;17.88;;;15.35;;
50851;SDS011;43953;45.508;-122.806;2022-09-13T03:23:12;22.30;;;15.40;;
50851;SDS011;43953;45.508;-122.806;2022-09-13T03:25:54;18.60;;;14.63;;
50851;SDS011;43953;45.508;-122.806;2022-09-13T03:26:37;19.40;;;15.02;;
50851;SDS011;43953;45.508;-122.806;2022-09-13T03:28:20;16.13;;;14.43;;
50851;SDS011;43953;45.508;-122.806;2022-09-13T03:30:05;18.15;;;14.73;;
50851;SDS011;43953;45.508;-122.806;2022-09-13T03:30:40;18.10;;;14.52;;
50851;SDS011;43953;45.508;-122.806;2022-09-13T03:32:02;18.50;;;14.52;;
50851;SDS011;43953;45.508;-122.806;2022-09-13T03:33:38;16.77;;;14.75;;
50851;SDS011;43953;45.508;-122.806;2022-09-13T03:37:01;20.02;;;15.52;;
50851;SDS011;43953;45.508;-122.806;2022-09-13T03:37:50;17.25;;;14.15;;
50851;SDS011;43953;45.508;-122.806;2022-09-13T03:38:32;21.08;;;14.35;;
50851;SDS011;43953;45.508;-122.806;2022-09-13T03:40:12;18.42;;;14.02;;
50851;SDS011;43953;45.508;-122.806;2022-09-13T03:41:06;19.65;;;14.77;;
50851;SDS011;43953;45.508;-122.806;2022-09-13T03:41:45;17.55;;;14.68;;
50851;SDS011;43953;45.508;-122.806;2022-09-13T03:43:58;18.23;;;15.00;;
50851;SDS011;43953;45.508;-122.806;2022-09-13T03:44:33;17.70;;;13.90;;
50851;SDS011;43953;45.508;-122.806;2022-09-13T03:45:08;21.25;;;14.93;;
50851;SDS011;43953;45.508;-122.806;2022-09-13T03:45:43;18.60;;;14.45;;
50851;SDS011;43953;45.508;-122.806;2022-09-13T03:46:27;19.15;;;15.18;;
50851;SDS011;43953;45.508;-122.806;2022-09-13T03:47:02;19.08;;;14.95;;
50851;SDS011;43953;45.508;-122.806;2022-09-13T03:47:36;15.95;;;13.75;;
50851;SDS011;43953;45.508;-122.806;2022-09-13T03:48:12;16.20;;;14.40;;
50851;SDS011;43953;45.508;-122.806;2022-09-13T03:48:45;19.83;;;15.88;;
50851;SDS011;43953;45.508;-122.806;2022-09-13T03:49:18;17.77;;;15.10;;
50851;SDS011;43953;45.508;-122.806;2022-09-13T03:49:53;17.55;;;14.35;;
50851;SDS011;43953;45.508;-122.806;2022-09-13T03:50:27;17.10;;;14.55;;
50851;SDS011;43953;45.508;-122.806;2022-09-13T03:50:59;17.02;;;14.10;;
50851;SDS011;43953;45.508;-122.806;2022-09-13T03:51:31;18.45;;;14.63;;
50851;SDS011;43953;45.508;-122.806;2022-09-13T03:52:03;19.30;;;14.60;;
50851;SDS011;43953;45.508;-122.806;2022-09-13T03:52:37;18.20;;;14.43;;
50851;SDS011;43953;45.508;-122.806;2022-09-13T03:53:10;17.20;;;14.70;;
50851;SDS011;43953;45.508;-122.806;2022-09-13T03:54:04;17.25;;;13.90;;
50851;SDS011;43953;45.508;-122.806;2022-09-13T03:54:39;18.10;;;15.40;;
50851;SDS011;43953;45.508;-122.806;2022-09-13T03:55:11;16.70;;;14.02;;
50851;SDS011;43953;45.508;-122.806;2022-09-13T03:55:43;18.48;;;14.40;;
50851;SDS011;43953;45.508;-122.806;2022-09-13T03:56:17;17.67;;;14.60;;
50851;SDS011;43953;45.508;-122.806;2022-09-13T03:57:11;18.75;;;14.60;;
50851;SDS011;43953;45.508;-122.806;2022-09-13T03:57:46;18.08;;;14.30;;
50851;SDS011;43953;45.508;-122.806;2022-09-13T03:58:18;18.55;;;15.02;;
50851;SDS011;43953;45.508;-122.806;2022-09-13T03:58:51;18.45;;;14.98;;
50851;SDS011;43953;45.508;-122.806;2022-09-13T03:59:23;17.95;;;14.77;;
50851;SDS011;43953;45.508;-122.806;2022-09-13T03:59:56;18.70;;;14.25;;
50851;SDS011;43953;45.508;-122.806;2022-09-13T04:00:27;18.20;;;14.25;;
50851;SDS011;43953;45.508;-122.806;2022-09-13T04:00:59;16.52;;;14.65;;
50851;SDS011;43953;45.508;-122.806;2022-09-13T04:01:31;18.17;;;14.48;;
50851;SDS011;43953;45.508;-122.806;2022-09-13T04:02:03;18.88;;;14.55;;
50851;SDS011;43953;45.508;-122.806;2022-09-13T04:02:37;20.00;;;14.82;;
50851;SDS011;43953;45.508;-122.806;2022-09-13T04:03:08;16.77;;;14.25;;
50851;SDS011;43953;45.508;-122.806;2022-09-13T04:03:40;15.98;;;13.82;;
50851;SDS011;43953;45.508;-122.806;2022-09-13T04:04:12;16.17;;;13.75;;
50851;SDS011;43953;45.508;-122.806;2022-09-13T04:04:46;16.58;;;14.15;;
50851;SDS011;43953;45.508;-122.806;2022-09-13T04:05:18;18.05;;;14.15;;
50851;SDS011;43953;45.508;-122.806;2022-09-13T04:05:50;16.77;;;14.05;;
50851;SDS011;43953;45.508;-122.806;2022-09-13T04:06:21;17.88;;;14.13;;
50851;SDS011;43953;45.508;-122.806;2022-09-13T04:06:53;17.13;;;13.73;;
50851;SDS011;43953;45.508;-122.806;2022-09-13T04:07:26;19.38;;;15.25;;
50851;SDS011;43953;45.508;-122.806;2022-09-13T04:07:58;16.52;;;13.88;;
50851;SDS011;43953;45.508;-122.806;2022-09-13T04:08:30;20.20;;;15.50;;
50851;SDS011;43953;45.508;-122.806;2022-09-13T04:09:03;19.58;;;14.93;;
50851;SDS011;43953;45.508;-122.806;2022-09-13T04:09:34;17.98;;;14.35;;
50851;SDS011;43953;45.508;-122.806;2022-09-13T04:10:06;15.57;;;13.93;;
50851;SDS011;43953;45.508;-122.806;2022-09-13T04:10:39;17.75;;;14.77;;
50851;SDS011;43953;45.508;-122.806;2022-09-13T04:11:10;17.38;;;14.10;;
50851;SDS011;43953;45.508;-122.806;2022-09-13T04:11:42;17.20;;;14.05;;
50851;SDS011;43953;45.508;-122.806;2022-09-13T04:12:14;19.67;;;14.82;;
50851;SDS011;43953;45.508;-122.806;2022-09-13T04:12:47;18.08;;;15.00;;
50851;SDS011;43953;45.508;-122.806;2022-09-13T04:13:19;19.92;;;14.90;;
50851;SDS011;43953;45.508;-122.806;2022-09-13T04:13:52;16.10;;;13.85;;
50851;SDS011;43953;45.508;-122.806;2022-09-13T04:14:24;16.77;;;14.45;;
50851;SDS011;43953;45.508;-122.806;2022-09-13T04:14:58;16.52;;;13.70;;
50851;SDS011;43953;45.508;-122.806;2022-09-13T04:15:30;18.23;;;14.63;;
50851;SDS011;43953;45.508;-122.806;2022-09-13T04:16:03;17.02;;;14.35;;
50851;SDS011;43953;45.508;-122.806;2022-09-13T04:16:36;18.15;;;14.77;;
50851;SDS011;43953;45.508;-122.806;2022-09-13T04:17:08;19.25;;;15.52;;
50851;SDS011;43953;45.508;-122.806;2022-09-13T04:17:41;21.50;;;15.27;;
50851;SDS011;43953;45.508;-122.806;2022-09-13T04:18:12;19.48;;;15.68;;
50851;SDS011;43953;45.508;-122.806;2022-09-13T04:18:44;18.02;;;14.95;;
50851;SDS011;43953;45.508;-122.806;2022-09-13T04:19:16;17.70;;;15.52;;
50851;SDS011;43953;45.508;-122.806;2022-09-13T04:19:48;20.40;;;15.68;;
50851;SDS011;43953;45.508;-122.806;2022-09-13T04:20:19;20.17;;;15.57;;
50851;SDS011;43953;45.508;-122.806;2022-09-13T04:20:52;20.75;;;16.48;;
50851;SDS011;43953;45.508;-122.806;2022-09-13T04:21:25;21.65;;;16.60;;
50851;SDS011;43953;45.508;-122.806;2022-09-13T04:21:57;21.17;;;16.58;;
50851;SDS011;43953;45.508;-122.806;2022-09-13T04:22:29;20.77;;;16.10;;
50851;SDS011;43953;45.508;-122.806;2022-09-13T04:23:01;22.55;;;17.27;;
50851;SDS011;43953;45.508;-122.806;2022-09-13T04:23:32;22.55;;;16.73;;
50851;SDS011;43953;45.508;-122.806;2022-09-13T04:24:04;22.52;;;16.67;;
50851;SDS011;43953;45.508;-122.806;2022-09-13T04:24:36;19.23;;;15.45;;
50851;SDS011;43953;45.508;-122.806;2022-09-13T04:25:09;18.38;;;14.55;;
50851;SDS011;43953;45.508;-122.806;2022-09-13T04:25:41;24.10;;;16.73;;
50851;SDS011;43953;45.508;-122.806;2022-09-13T04:26:13;19.98;;;15.15;;
50851;SDS011;43953;45.508;-122.806;2022-09-13T04:26:48;19.60;;;15.65;;
50851;SDS011;43953;45.508;-122.806;2022-09-13T04:27:21;19.30;;;15.65;;